Wattsburg, Pennsylvania
Current Conditions -  °F | °C
As of 6:51 AM on Monday 24 Nov 2014 (Local Time) from KERI Reporting Station
Broken Clouds Broken Clouds  
Wind Chill: 60°   Ceiling: 6000
Heat Index: 60°   Visibility: 10mi
Dew Point: 51°   Wind: 22mph
Humidity: 72%   Direction: 190°S
Pressure: 29.29"   Gusts: 32mph
Location:  42°N, 79.81°W
Report Text: KERI 241151Z 19019G28KT 10SM FEW030 SCT049 BKN060 16/11 A2929 RMK AO2 PK WND 21041/1106 SLP917 60000 70014 T01560106 10161 20122 53012
Loading
Personal Weather Stations






























Interactive Weather Map New forecast layout! Learn more

10-Day Weather Forecast

Advertisements
Track Severe Weather on mobile